sensor_id;sensor_type;location;lat;lon;timestamp;pressure;altitude;pressure_sealevel;temperature;humidity
77572;BME280;67214;47.454;18.966;2024-01-30T00:00:38;102594.05;;;-3.49;89.94
77572;BME280;67214;47.454;18.966;2024-01-30T00:03:06;102584.97;;;-3.49;89.92
77572;BME280;67214;47.454;18.966;2024-01-30T00:05:33;102591.83;;;-3.52;89.75
77572;BME280;67214;47.454;18.966;2024-01-30T00:08:01;102592.66;;;-3.55;89.79
77572;BME280;67214;47.454;18.966;2024-01-30T00:10:28;102594.80;;;-3.56;89.72
77572;BME280;67214;47.454;18.966;2024-01-30T00:12:56;102594.77;;;-3.57;89.71
77572;BME280;67214;47.454;18.966;2024-01-30T00:15:23;102596.59;;;-3.52;89.69
77572;BME280;67214;47.454;18.966;2024-01-30T00:17:50;102594.46;;;-3.49;89.40
77572;BME280;67214;47.454;18.966;2024-01-30T00:20:19;102583.59;;;-3.53;88.89
77572;BME280;67214;47.454;18.966;2024-01-30T00:22:46;102582.72;;;-3.54;88.64
77572;BME280;67214;47.454;18.966;2024-01-30T00:25:14;102593.96;;;-3.55;88.74
77572;BME280;67214;47.454;18.966;2024-01-30T00:27:41;102604.25;;;-3.59;88.68
77572;BME280;67214;47.454;18.966;2024-01-30T00:30:10;102598.16;;;-3.63;88.77
77572;BME280;67214;47.454;18.966;2024-01-30T00:32:38;102600.20;;;-3.68;88.78
77572;BME280;67214;47.454;18.966;2024-01-30T00:35:05;102610.95;;;-3.70;88.83
77572;BME280;67214;47.454;18.966;2024-01-30T00:37:33;102613.08;;;-3.73;88.96
77572;BME280;67214;47.454;18.966;2024-01-30T00:40:00;102607.45;;;-3.74;89.13
77572;BME280;67214;47.454;18.966;2024-01-30T00:42:28;102598.78;;;-3.76;89.72
77572;BME280;67214;47.454;18.966;2024-01-30T00:44:55;102604.34;;;-3.78;90.24
77572;BME280;67214;47.454;18.966;2024-01-30T00:47:23;102612.54;;;-3.80;90.53
77572;BME280;67214;47.454;18.966;2024-01-30T00:49:50;102617.22;;;-3.84;90.77
77572;BME280;67214;47.454;18.966;2024-01-30T00:52:18;102611.12;;;-3.86;90.73
77572;BME280;67214;47.454;18.966;2024-01-30T00:54:45;102615.59;;;-3.79;90.80
77572;BME280;67214;47.454;18.966;2024-01-30T00:57:12;102612.49;;;-3.83;90.80
77572;BME280;67214;47.454;18.966;2024-01-30T00:59:40;102613.80;;;-3.82;90.81
77572;BME280;67214;47.454;18.966;2024-01-30T01:02:07;102600.38;;;-3.84;90.50
77572;BME280;67214;47.454;18.966;2024-01-30T01:04:35;102606.44;;;-3.84;90.37
77572;BME280;67214;47.454;18.966;2024-01-30T01:07:02;102607.64;;;-3.88;90.31
77572;BME280;67214;47.454;18.966;2024-01-30T01:09:30;102609.40;;;-3.87;90.08
77572;BME280;67214;47.454;18.966;2024-01-30T01:11:57;102597.16;;;-3.94;89.75
77572;BME280;67214;47.454;18.966;2024-01-30T01:14:25;102611.78;;;-3.98;89.86
77572;BME280;67214;47.454;18.966;2024-01-30T01:16:52;102604.05;;;-3.96;89.74
77572;BME280;67214;47.454;18.966;2024-01-30T01:19:20;102599.28;;;-3.95;89.52
77572;BME280;67214;47.454;18.966;2024-01-30T01:21:47;102600.62;;;-3.94;89.27
77572;BME280;67214;47.454;18.966;2024-01-30T01:24:15;102601.41;;;-3.98;89.29
77572;BME280;67214;47.454;18.966;2024-01-30T01:26:42;102600.16;;;-3.96;89.40
77572;BME280;67214;47.454;18.966;2024-01-30T01:29:09;102593.64;;;-3.98;89.51
77572;BME280;67214;47.454;18.966;2024-01-30T01:31:38;102590.22;;;-3.95;89.55
77572;BME280;67214;47.454;18.966;2024-01-30T01:34:07;102594.05;;;-4.00;89.35
77572;BME280;67214;47.454;18.966;2024-01-30T01:36:35;102590.08;;;-4.03;89.14
77572;BME280;67214;47.454;18.966;2024-01-30T01:39:03;102583.09;;;-4.07;89.15
77572;BME280;67214;47.454;18.966;2024-01-30T01:41:31;102589.56;;;-4.08;89.26
77572;BME280;67214;47.454;18.966;2024-01-30T01:43:59;102589.58;;;-4.07;89.23
77572;BME280;67214;47.454;18.966;2024-01-30T01:46:28;102593.88;;;-4.09;89.02
77572;BME280;67214;47.454;18.966;2024-01-30T01:48:57;102581.72;;;-4.11;89.05
77572;BME280;67214;47.454;18.966;2024-01-30T01:51:27;102583.47;;;-4.12;89.14
77572;BME280;67214;47.454;18.966;2024-01-30T01:53:56;102580.46;;;-4.10;89.50
77572;BME280;67214;47.454;18.966;2024-01-30T01:56:24;102580.92;;;-4.09;89.52
77572;BME280;67214;47.454;18.966;2024-01-30T01:58:54;102582.55;;;-4.14;90.04
77572;BME280;67214;47.454;18.966;2024-01-30T02:01:23;102588.14;;;-4.16;90.10
77572;BME280;67214;47.454;18.966;2024-01-30T02:03:52;102583.38;;;-4.15;90.65
77572;BME280;67214;47.454;18.966;2024-01-30T02:06:20;102579.50;;;-4.15;90.99
77572;BME280;67214;47.454;18.966;2024-01-30T02:08:47;102579.12;;;-4.13;90.68
77572;BME280;67214;47.454;18.966;2024-01-30T02:11:15;102579.45;;;-4.18;90.65
77572;BME280;67214;47.454;18.966;2024-01-30T02:13:43;102575.60;;;-4.16;90.59
77572;BME280;67214;47.454;18.966;2024-01-30T02:16:10;102573.38;;;-4.20;90.31
77572;BME280;67214;47.454;18.966;2024-01-30T02:18:38;102584.58;;;-4.21;90.34
77572;BME280;67214;47.454;18.966;2024-01-30T02:21:07;102569.37;;;-4.26;90.09
77572;BME280;67214;47.454;18.966;2024-01-30T02:23:35;102574.97;;;-4.27;90.04
77572;BME280;67214;47.454;18.966;2024-01-30T02:26:03;102577.55;;;-4.28;89.90
77572;BME280;67214;47.454;18.966;2024-01-30T02:28:30;102576.63;;;-4.30;89.85
77572;BME280;67214;47.454;18.966;2024-01-30T02:30:58;102569.23;;;-4.34;89.88
77572;BME280;67214;47.454;18.966;2024-01-30T02:33:25;102572.70;;;-4.32;90.09
77572;BME280;67214;47.454;18.966;2024-01-30T02:35:53;102562.02;;;-4.27;89.79
77572;BME280;67214;47.454;18.966;2024-01-30T02:38:21;102566.59;;;-4.35;89.82
77572;BME280;67214;47.454;18.966;2024-01-30T02:40:50;102570.76;;;-4.43;89.90
77572;BME280;67214;47.454;18.966;2024-01-30T02:43:17;102578.62;;;-4.39;90.14
77572;BME280;67214;47.454;18.966;2024-01-30T02:45:45;102573.34;;;-4.45;90.14
77572;BME280;67214;47.454;18.966;2024-01-30T02:48:12;102579.03;;;-4.41;90.18
77572;BME280;67214;47.454;18.966;2024-01-30T02:50:39;102585.09;;;-4.40;90.04
77572;BME280;67214;47.454;18.966;2024-01-30T02:53:07;102579.41;;;-4.43;90.22
77572;BME280;67214;47.454;18.966;2024-01-30T02:55:34;102580.28;;;-4.42;90.25
77572;BME280;67214;47.454;18.966;2024-01-30T02:58:02;102573.16;;;-4.54;90.88
77572;BME280;67214;47.454;18.966;2024-01-30T03:00:29;102569.36;;;-4.49;90.69
77572;BME280;67214;47.454;18.966;2024-01-30T03:02:57;102579.73;;;-4.48;90.54
77572;BME280;67214;47.454;18.966;2024-01-30T03:05:24;102581.48;;;-4.47;90.29
77572;BME280;67214;47.454;18.966;2024-01-30T03:07:51;102575.93;;;-4.45;89.81
77572;BME280;67214;47.454;18.966;2024-01-30T03:10:19;102576.71;;;-4.49;89.67
77572;BME280;67214;47.454;18.966;2024-01-30T03:12:46;102574.03;;;-4.52;89.54
77572;BME280;67214;47.454;18.966;2024-01-30T03:15:14;102573.19;;;-4.52;89.68
77572;BME280;67214;47.454;18.966;2024-01-30T03:17:41;102579.12;;;-4.56;89.68
77572;BME280;67214;47.454;18.966;2024-01-30T03:20:09;102583.88;;;-4.56;89.55
77572;BME280;67214;47.454;18.966;2024-01-30T03:22:36;102582.58;;;-4.57;89.56
77572;BME280;67214;47.454;18.966;2024-01-30T03:25:04;102581.30;;;-4.56;89.23
77572;BME280;67214;47.454;18.966;2024-01-30T03:27:32;102582.84;;;-4.65;89.17
77572;BME280;67214;47.454;18.966;2024-01-30T03:30:00;102582.84;;;-4.65;89.56
77572;BME280;67214;47.454;18.966;2024-01-30T03:32:27;102581.46;;;-4.69;90.16
77572;BME280;67214;47.454;18.966;2024-01-30T03:34:55;102586.53;;;-4.75;90.54
77572;BME280;67214;47.454;18.966;2024-01-30T03:37:22;102570.95;;;-4.76;90.56
77572;BME280;67214;47.454;18.966;2024-01-30T03:39:49;102566.30;;;-4.72;90.18
77572;BME280;67214;47.454;18.966;2024-01-30T03:42:17;102581.83;;;-4.72;90.20
77572;BME280;67214;47.454;18.966;2024-01-30T03:44:44;102565.56;;;-4.66;90.22
77572;BME280;67214;47.454;18.966;2024-01-30T03:47:12;102569.81;;;-4.69;89.95
77572;BME280;67214;47.454;18.966;2024-01-30T03:49:39;102558.63;;;-4.67;89.78
77572;BME280;67214;47.454;18.966;2024-01-30T03:52:07;102547.91;;;-4.64;89.44
77572;BME280;67214;47.454;18.966;2024-01-30T03:54:34;102560.84;;;-4.65;88.93
77572;BME280;67214;47.454;18.966;2024-01-30T03:57:02;102559.40;;;-4.73;88.58
77572;BME280;67214;47.454;18.966;2024-01-30T03:59:29;102564.53;;;-4.75;88.60
77572;BME280;67214;47.454;18.966;2024-01-30T04:01:57;102564.48;;;-4.76;88.44
77572;BME280;67214;47.454;18.966;2024-01-30T04:04:24;102564.44;;;-4.79;88.23
77572;BME280;67214;47.454;18.966;2024-01-30T04:06:52;102558.80;;;-4.80;88.35
77572;BME280;67214;47.454;18.966;2024-01-30T04:09:19;102565.77;;;-4.78;88.45
77572;BME280;67214;47.454;18.966;2024-01-30T04:11:47;102556.71;;;-4.78;88.30
77572;BME280;67214;47.454;18.966;2024-01-30T04:14:14;102561.28;;;-4.85;88.30
77572;BME280;67214;47.454;18.966;2024-01-30T04:16:42;102555.42;;;-4.78;88.75
77572;BME280;67214;47.454;18.966;2024-01-30T04:19:09;102556.57;;;-4.84;88.73
77572;BME280;67214;47.454;18.966;2024-01-30T04:21:37;102552.31;;;-4.82;88.77
77572;BME280;67214;47.454;18.966;2024-01-30T04:24:05;102553.92;;;-4.87;88.88
77572;BME280;67214;47.454;18.966;2024-01-30T04:26:32;102550.87;;;-4.89;89.01
77572;BME280;67214;47.454;18.966;2024-01-30T04:28:59;102549.22;;;-4.84;89.24
77572;BME280;67214;47.454;18.966;2024-01-30T04:31:27;102550.56;;;-4.83;88.94
77572;BME280;67214;47.454;18.966;2024-01-30T04:33:54;102537.98;;;-4.86;89.05
77572;BME280;67214;47.454;18.966;2024-01-30T04:36:22;102553.88;;;-4.88;89.25
77572;BME280;67214;47.454;18.966;2024-01-30T04:38:49;102559.05;;;-4.90;89.36
77572;BME280;67214;47.454;18.966;2024-01-30T04:41:17;102553.88;;;-4.88;89.32
77572;BME280;67214;47.454;18.966;2024-01-30T04:43:44;102553.92;;;-4.87;88.96
77572;BME280;67214;47.454;18.966;2024-01-30T04:46:11;102557.25;;;-4.92;89.09
77572;BME280;67214;47.454;18.966;2024-01-30T04:48:39;102558.53;;;-4.94;89.09
77572;BME280;67214;47.454;18.966;2024-01-30T04:51:06;102560.35;;;-4.88;88.69
77572;BME280;67214;47.454;18.966;2024-01-30T04:53:34;102570.18;;;-4.92;88.62
77572;BME280;67214;47.454;18.966;2024-01-30T04:56:01;102564.89;;;-4.98;88.53
77572;BME280;67214;47.454;18.966;2024-01-30T04:58:29;102567.54;;;-4.95;88.28
77572;BME280;67214;47.454;18.966;2024-01-30T05:00:56;102562.52;;;-5.08;88.85
77572;BME280;67214;47.454;18.966;2024-01-30T05:03:24;102568.51;;;-5.10;88.91
77572;BME280;67214;47.454;18.966;2024-01-30T05:05:51;102569.75;;;-5.13;88.96
77572;BME280;67214;47.454;18.966;2024-01-30T05:08:19;102564.63;;;-5.10;89.05
77572;BME280;67214;47.454;18.966;2024-01-30T05:10:46;102571.56;;;-5.09;88.96
77572;BME280;67214;47.454;18.966;2024-01-30T05:13:13;102571.57;;;-5.08;88.96
77572;BME280;67214;47.454;18.966;2024-01-30T05:15:41;102582.06;;;-5.02;88.99
77572;BME280;67214;47.454;18.966;2024-01-30T05:18:08;102581.04;;;-5.08;89.00
77572;BME280;67214;47.454;18.966;2024-01-30T05:20:36;102581.45;;;-5.09;89.08
77572;BME280;67214;47.454;18.966;2024-01-30T05:23:03;102586.11;;;-5.13;89.32
77572;BME280;67214;47.454;18.966;2024-01-30T05:25:31;102582.73;;;-5.10;89.12
77572;BME280;67214;47.454;18.966;2024-01-30T05:27:58;102588.80;;;-5.08;88.86
77572;BME280;67214;47.454;18.966;2024-01-30T05:30:26;102589.97;;;-5.14;89.15
77572;BME280;67214;47.454;18.966;2024-01-30T05:32:53;102594.22;;;-5.17;89.14
77572;BME280;67214;47.454;18.966;2024-01-30T05:35:20;102589.03;;;-5.18;88.97
77572;BME280;67214;47.454;18.966;2024-01-30T05:37:51;102590.34;;;-5.17;88.90
77572;BME280;67214;47.454;18.966;2024-01-30T05:40:18;102593.33;;;-5.19;88.65
77572;BME280;67214;47.454;18.966;2024-01-30T05:42:46;102594.69;;;-5.16;88.87
77572;BME280;67214;47.454;18.966;2024-01-30T05:45:13;102589.20;;;-5.10;88.74
77572;BME280;67214;47.454;18.966;2024-01-30T05:47:41;102596.13;;;-5.09;88.54
77572;BME280;67214;47.454;18.966;2024-01-30T05:50:08;102598.09;;;-5.17;88.47
77572;BME280;67214;47.454;18.966;2024-01-30T05:52:35;102592.16;;;-5.12;88.34
77572;BME280;67214;47.454;18.966;2024-01-30T05:55:03;102595.50;;;-5.18;88.48
77572;BME280;67214;47.454;18.966;2024-01-30T05:57:31;102580.64;;;-5.27;88.66
77572;BME280;67214;47.454;18.966;2024-01-30T05:59:59;102596.58;;;-5.27;88.76
77572;BME280;67214;47.454;18.966;2024-01-30T06:02:26;102587.13;;;-5.25;88.74
77572;BME280;67214;47.454;18.966;2024-01-30T06:04:54;102593.53;;;-5.28;88.72
77572;BME280;67214;47.454;18.966;2024-01-30T06:07:21;102596.83;;;-5.34;89.18
77572;BME280;67214;47.454;18.966;2024-01-30T06:09:49;102597.04;;;-5.26;89.82
77572;BME280;67214;47.454;18.966;2024-01-30T06:12:16;102596.53;;;-5.29;89.77
77572;BME280;67214;47.454;18.966;2024-01-30T06:14:44;102596.46;;;-5.32;89.90
77572;BME280;67214;47.454;18.966;2024-01-30T06:17:11;102598.23;;;-5.29;90.03
77572;BME280;67214;47.454;18.966;2024-01-30T06:19:39;102601.39;;;-5.24;89.74
77572;BME280;67214;47.454;18.966;2024-01-30T06:22:06;102598.87;;;-5.21;89.69
77572;BME280;67214;47.454;18.966;2024-01-30T06:24:33;102598.92;;;-5.19;89.73
77572;BME280;67214;47.454;18.966;2024-01-30T06:27:01;102595.39;;;-5.23;89.89
77572;BME280;67214;47.454;18.966;2024-01-30T06:29:28;102599.37;;;-5.18;89.97
77572;BME280;67214;47.454;18.966;2024-01-30T06:31:56;102595.56;;;-5.15;89.12
77572;BME280;67214;47.454;18.966;2024-01-30T06:34:23;102600.42;;;-5.10;89.21
77572;BME280;67214;47.454;18.966;2024-01-30T06:36:52;102608.29;;;-5.05;89.27
77572;BME280;67214;47.454;18.966;2024-01-30T06:39:20;102609.54;;;-5.07;89.09
77572;BME280;67214;47.454;18.966;2024-01-30T06:41:47;102610.52;;;-5.02;89.12
77572;BME280;67214;47.454;18.966;2024-01-30T06:44:15;102607.58;;;-4.98;88.97
77572;BME280;67214;47.454;18.966;2024-01-30T06:46:42;102606.14;;;-4.86;88.82
77572;BME280;67214;47.454;18.966;2024-01-30T06:49:09;102609.66;;;-4.82;88.74
77572;BME280;67214;47.454;18.966;2024-01-30T06:51:37;102602.42;;;-4.78;88.67
77572;BME280;67214;47.454;18.966;2024-01-30T06:54:04;102616.77;;;-4.72;88.83
77572;BME280;67214;47.454;18.966;2024-01-30T06:56:32;102600.96;;;-4.65;88.90
77572;BME280;67214;47.454;18.966;2024-01-30T06:58:59;102605.73;;;-4.63;88.78
77572;BME280;67214;47.454;18.966;2024-01-30T07:01:30;102606.23;;;-4.61;88.69
77572;BME280;67214;47.454;18.966;2024-01-30T07:03:58;102614.02;;;-4.59;88.71
77572;BME280;67214;47.454;18.966;2024-01-30T07:06:25;102616.66;;;-4.56;88.75
77572;BME280;67214;47.454;18.966;2024-01-30T07:08:53;102616.38;;;-4.50;88.73
77572;BME280;67214;47.454;18.966;2024-01-30T07:11:21;102617.31;;;-4.46;88.68
77572;BME280;67214;47.454;18.966;2024-01-30T07:13:51;102615.80;;;-4.35;88.71
77572;BME280;67214;47.454;18.966;2024-01-30T07:16:19;102618.07;;;-4.30;88.48
77572;BME280;67214;47.454;18.966;2024-01-30T07:18:46;102617.43;;;-4.18;88.52
77572;BME280;67214;47.454;18.966;2024-01-30T07:21:14;102618.91;;;-4.09;88.54
77572;BME280;67214;47.454;18.966;2024-01-30T07:23:42;102623.02;;;-3.97;88.61
77572;BME280;67214;47.454;18.966;2024-01-30T07:26:09;102612.49;;;-3.83;88.42
77572;BME280;67214;47.454;18.966;2024-01-30T07:28:37;102613.92;;;-3.74;88.29
77572;BME280;67214;47.454;18.966;2024-01-30T07:31:04;102605.97;;;-3.60;87.57
77572;BME280;67214;47.454;18.966;2024-01-30T07:33:32;102614.33;;;-3.50;87.56
77572;BME280;67214;47.454;18.966;2024-01-30T07:36:00;102609.37;;;-3.36;87.47
77572;BME280;67214;47.454;18.966;2024-01-30T07:38:27;102607.36;;;-3.26;87.39
77572;BME280;67214;47.454;18.966;2024-01-30T07:40:55;102605.33;;;-3.17;87.27
77572;BME280;67214;47.454;18.966;2024-01-30T07:43:22;102600.73;;;-3.07;87.28
77572;BME280;67214;47.454;18.966;2024-01-30T07:45:50;102596.56;;;-2.96;87.05
77572;BME280;67214;47.454;18.966;2024-01-30T07:48:17;102601.08;;;-2.83;86.60
77572;BME280;67214;47.454;18.966;2024-01-30T07:50:45;102590.85;;;-2.71;86.02
77572;BME280;67214;47.454;18.966;2024-01-30T07:53:12;102580.59;;;-2.60;85.66
77572;BME280;67214;47.454;18.966;2024-01-30T07:55:40;102586.80;;;-2.48;85.44
77572;BME280;67214;47.454;18.966;2024-01-30T07:58:09;102592.59;;;-2.35;85.36
77572;BME280;67214;47.454;18.966;2024-01-30T08:00:36;102593.20;;;-2.18;86.39
77572;BME280;67214;47.454;18.966;2024-01-30T08:03:04;102588.21;;;-2.00;86.32
77572;BME280;67214;47.454;18.966;2024-01-30T08:05:31;102590.09;;;-1.82;86.36
77572;BME280;67214;47.454;18.966;2024-01-30T08:07:59;102589.80;;;-1.67;86.83
77572;BME280;67214;47.454;18.966;2024-01-30T08:10:26;102583.01;;;-1.50;87.22
77572;BME280;67214;47.454;18.966;2024-01-30T08:12:54;102584.02;;;-1.29;87.39
77572;BME280;67214;47.454;18.966;2024-01-30T08:15:21;102595.41;;;-1.18;87.37
77572;BME280;67214;47.454;18.966;2024-01-30T08:17:49;102595.02;;;-1.09;87.37
77572;BME280;67214;47.454;18.966;2024-01-30T08:20:18;102587.72;;;-0.96;87.55
77572;BME280;67214;47.454;18.966;2024-01-30T08:22:45;102593.02;;;-0.77;87.63
77572;BME280;67214;47.454;18.966;2024-01-30T08:25:14;102595.31;;;-0.54;87.55
77572;BME280;67214;47.454;18.966;2024-01-30T08:27:42;102591.91;;;-0.35;87.16
77572;BME280;67214;47.454;18.966;2024-01-30T08:30:10;102591.97;;;-0.14;86.86
77572;BME280;67214;47.454;18.966;2024-01-30T08:32:37;102595.48;;;0.10;86.99
77572;BME280;67214;47.454;18.966;2024-01-30T08:35:05;102592.46;;;0.30;86.80
77572;BME280;67214;47.454;18.966;2024-01-30T08:37:34;102596.41;;;0.53;86.57
77572;BME280;67214;47.454;18.966;2024-01-30T08:40:02;102597.23;;;0.70;86.24
77572;BME280;67214;47.454;18.966;2024-01-30T08:42:30;102607.23;;;0.87;86.22
77572;BME280;67214;47.454;18.966;2024-01-30T08:44:59;102606.34;;;1.03;85.70
77572;BME280;67214;47.454;18.966;2024-01-30T08:47:26;102611.09;;;1.14;85.37
77572;BME280;67214;47.454;18.966;2024-01-30T08:49:54;102608.49;;;1.22;84.98
77572;BME280;67214;47.454;18.966;2024-01-30T08:52:21;102608.44;;;1.31;84.66
77572;BME280;67214;47.454;18.966;2024-01-30T08:54:49;102595.34;;;1.40;84.59
77572;BME280;67214;47.454;18.966;2024-01-30T08:57:16;102603.59;;;1.49;84.68
77572;BME280;67214;47.454;18.966;2024-01-30T08:59:44;102595.26;;;1.60;84.68
77572;BME280;67214;47.454;18.966;2024-01-30T09:02:13;102601.75;;;1.67;84.74
77572;BME280;67214;47.454;18.966;2024-01-30T09:04:42;102594.74;;;1.75;84.78
77572;BME280;67214;47.454;18.966;2024-01-30T09:07:10;102595.16;;;1.81;84.64
77572;BME280;67214;47.454;18.966;2024-01-30T09:09:40;102588.60;;;1.87;84.67
77572;BME280;67214;47.454;18.966;2024-01-30T09:12:07;102581.58;;;1.95;84.58
77572;BME280;67214;47.454;18.966;2024-01-30T09:14:37;102584.57;;;2.01;84.73
77572;BME280;67214;47.454;18.966;2024-01-30T09:17:04;102582.45;;;1.96;85.19
77572;BME280;67214;47.454;18.966;2024-01-30T09:19:32;102584.55;;;2.07;85.94
77572;BME280;67214;47.454;18.966;2024-01-30T09:22:00;102583.53;;;2.26;85.26
77572;BME280;67214;47.454;18.966;2024-01-30T09:24:27;102579.10;;;2.34;84.55
77572;BME280;67214;47.454;18.966;2024-01-30T09:26:55;102592.50;;;2.50;84.09
77572;BME280;67214;47.454;18.966;2024-01-30T09:29:22;102584.57;;;2.61;83.62
77572;BME280;67214;47.454;18.966;2024-01-30T09:31:50;102584.89;;;2.72;83.31
77572;BME280;67214;47.454;18.966;2024-01-30T09:34:17;102581.72;;;2.84;82.99
77572;BME280;67214;47.454;18.966;2024-01-30T09:36:45;102580.77;;;2.91;82.28
77572;BME280;67214;47.454;18.966;2024-01-30T09:39:12;102586.77;;;3.02;82.09
77572;BME280;67214;47.454;18.966;2024-01-30T09:41:47;102583.61;;;3.13;82.17
77572;BME280;67214;47.454;18.966;2024-01-30T09:44:18;102580.75;;;3.34;81.90
77572;BME280;67214;47.454;18.966;2024-01-30T09:46:47;102586.67;;;3.48;80.88
77572;BME280;67214;47.454;18.966;2024-01-30T09:49:15;102582.73;;;3.50;80.27
77572;BME280;67214;47.454;18.966;2024-01-30T09:51:45;102579.73;;;3.46;79.41
77572;BME280;67214;47.454;18.966;2024-01-30T09:54:14;102568.75;;;3.48;78.65
77572;BME280;67214;47.454;18.966;2024-01-30T09:56:41;102576.96;;;3.55;78.37
77572;BME280;67214;47.454;18.966;2024-01-30T09:59:09;102581.28;;;3.59;79.02
77572;BME280;67214;47.454;18.966;2024-01-30T10:01:37;102580.83;;;3.62;79.12
77572;BME280;67214;47.454;18.966;2024-01-30T10:04:05;102578.31;;;3.86;78.92
77572;BME280;67214;47.454;18.966;2024-01-30T10:06:33;102575.83;;;4.05;78.35
77572;BME280;67214;47.454;18.966;2024-01-30T10:09:01;102580.21;;;4.05;77.87
77572;BME280;67214;47.454;18.966;2024-01-30T10:11:29;102567.78;;;4.16;77.25
77572;BME280;67214;47.454;18.966;2024-01-30T10:13:56;102574.78;;;4.17;77.05
77572;BME280;67214;47.454;18.966;2024-01-30T10:16:24;102565.46;;;4.25;76.59
77572;BME280;67214;47.454;18.966;2024-01-30T10:18:51;102572.81;;;4.31;76.53
77572;BME280;67214;47.454;18.966;2024-01-30T10:21:18;102569.31;;;4.31;76.66
77572;BME280;67214;47.454;18.966;2024-01-30T10:23:46;102563.86;;;4.43;75.81
77572;BME280;67214;47.454;18.966;2024-01-30T10:26:15;102567.66;;;4.52;75.80
77572;BME280;67214;47.454;18.966;2024-01-30T10:28:43;102560.22;;;4.77;75.31
77572;BME280;67214;47.454;18.966;2024-01-30T10:31:15;102547.69;;;4.89;74.77
77572;BME280;67214;47.454;18.966;2024-01-30T10:33:40;102559.86;;;4.95;73.72
77572;BME280;67214;47.454;18.966;2024-01-30T10:36:07;102559.14;;;4.87;74.00
77572;BME280;67214;47.454;18.966;2024-01-30T10:38:35;102557.31;;;4.90;72.71
77572;BME280;67214;47.454;18.966;2024-01-30T10:41:05;102548.81;;;5.00;73.00
77572;BME280;67214;47.454;18.966;2024-01-30T10:43:35;102553.88;;;5.31;72.99
77572;BME280;67214;47.454;18.966;2024-01-30T10:46:10;102552.10;;;5.33;72.19
77572;BME280;67214;47.454;18.966;2024-01-30T10:48:43;102541.48;;;5.38;72.91
77572;BME280;67214;47.454;18.966;2024-01-30T10:51:15;102539.66;;;5.41;72.72
77572;BME280;67214;47.454;18.966;2024-01-30T10:53:45;102537.20;;;5.32;72.41
77572;BME280;67214;47.454;18.966;2024-01-30T10:56:16;102529.16;;;5.38;72.35
77572;BME280;67214;47.454;18.966;2024-01-30T10:58:44;102524.48;;;5.72;72.27
77572;BME280;67214;47.454;18.966;2024-01-30T11:01:12;102521.69;;;6.18;71.11
77572;BME280;67214;47.454;18.966;2024-01-30T11:03:40;102517.65;;;6.56;68.59
77572;BME280;67214;47.454;18.966;2024-01-30T11:06:10;102509.47;;;6.65;67.17
77572;BME280;67214;47.454;18.966;2024-01-30T11:08:40;102514.28;;;6.49;66.80
77572;BME280;67214;47.454;18.966;2024-01-30T11:11:09;102513.45;;;6.31;67.48
77572;BME280;67214;47.454;18.966;2024-01-30T11:13:37;102509.91;;;6.48;67.84
77572;BME280;67214;47.454;18.966;2024-01-30T11:16:06;102507.04;;;6.74;66.99
77572;BME280;67214;47.454;18.966;2024-01-30T11:18:35;102504.19;;;6.49;66.97
77572;BME280;67214;47.454;18.966;2024-01-30T11:21:05;102501.86;;;6.71;66.35
77572;BME280;67214;47.454;18.966;2024-01-30T11:23:34;102487.00;;;6.68;66.21
77572;BME280;67214;47.454;18.966;2024-01-30T11:26:04;102493.86;;;6.58;66.18
77572;BME280;67214;47.454;18.966;2024-01-30T11:28:34;102493.80;;;6.09;67.46
77572;BME280;67214;47.454;18.966;2024-01-30T11:31:08;102493.61;;;6.50;67.52
77572;BME280;67214;47.454;18.966;2024-01-30T11:33:36;102492.75;;;6.66;65.88
77572;BME280;67214;47.454;18.966;2024-01-30T11:36:04;102498.81;;;6.36;65.20
77572;BME280;67214;47.454;18.966;2024-01-30T11:38:34;102489.00;;;6.42;66.17
77572;BME280;67214;47.454;18.966;2024-01-30T11:41:02;102492.33;;;6.65;65.29
77572;BME280;67214;47.454;18.966;2024-01-30T11:43:30;102488.95;;;6.92;65.00
77572;BME280;67214;47.454;18.966;2024-01-30T11:45:59;102490.06;;;7.15;63.19
77572;BME280;67214;47.454;18.966;2024-01-30T11:48:28;102486.88;;;7.04;63.80
77572;BME280;67214;47.454;18.966;2024-01-30T11:50:56;102482.30;;;6.94;64.42
77572;BME280;67214;47.454;18.966;2024-01-30T11:53:25;102472.23;;;7.08;62.98
77572;BME280;67214;47.454;18.966;2024-01-30T11:55:52;102461.94;;;7.14;62.51
77572;BME280;67214;47.454;18.966;2024-01-30T11:58:20;102474.42;;;7.09;63.87
77572;BME280;67214;47.454;18.966;2024-01-30T12:00:55;102461.88;;;7.17;62.46
77572;BME280;67214;47.454;18.966;2024-01-30T12:03:23;102459.50;;;7.37;62.24
77572;BME280;67214;47.454;18.966;2024-01-30T12:05:58;102452.45;;;7.65;61.30
77572;BME280;67214;47.454;18.966;2024-01-30T12:08:26;102447.53;;;7.81;60.24
77572;BME280;67214;47.454;18.966;2024-01-30T12:10:58;102445.25;;;8.10;59.83
77572;BME280;67214;47.454;18.966;2024-01-30T12:13:28;102443.13;;;8.34;59.03
77572;BME280;67214;47.454;18.966;2024-01-30T12:15:56;102436.13;;;8.69;58.02
77572;BME280;67214;47.454;18.966;2024-01-30T12:18:24;102430.09;;;9.01;57.12
77572;BME280;67214;47.454;18.966;2024-01-30T12:21:01;102426.98;;;9.01;55.41
77572;BME280;67214;47.454;18.966;2024-01-30T12:23:28;102424.97;;;9.74;53.74
77572;BME280;67214;47.454;18.966;2024-01-30T12:25:56;102419.39;;;10.34;50.96
77572;BME280;67214;47.454;18.966;2024-01-30T12:28:24;102406.09;;;11.31;49.21
77572;BME280;67214;47.454;18.966;2024-01-30T12:30:56;102416.28;;;12.37;46.99
77572;BME280;67214;47.454;18.966;2024-01-30T12:33:27;102406.64;;;11.10;48.38
77572;BME280;67214;47.454;18.966;2024-01-30T12:35:57;102404.67;;;12.80;44.84
77572;BME280;67214;47.454;18.966;2024-01-30T12:38:27;102411.09;;;12.84;43.50
77572;BME280;67214;47.454;18.966;2024-01-30T12:40:55;102407.89;;;13.58;41.94
77572;BME280;67214;47.454;18.966;2024-01-30T12:43:26;102400.61;;;13.61;41.59
77572;BME280;67214;47.454;18.966;2024-01-30T12:45:54;102399.73;;;13.83;40.34